Time;durP1;ratioP1;P1;durP2;ratioP2;P2;SDS_P1;SDS_P2;PMS_P1;PMS_P2;Temp;Humidity;BMP_temperature;BMP_pressure;BME280_temperature;BME280_humidity;BME280_pressure;Samples;Min_cycle;Max_cycle;Signal;HPM_P1;HPM_P2
2021/08/27 00:02:14;;;;;;;20.15;12.40;;;;;;;;;;5115908;28;20036;-73
2021/08/27 00:04:40;;;;;;;18.75;11.93;;;;;;;;;;5115923;28;20027;-72
2021/08/27 00:07:05;;;;;;;17.17;11.38;;;;;;;;;;5115886;28;20031;-72
2021/08/27 00:09:31;;;;;;;18.30;11.80;;;;;;;;;;5097161;28;20071;-73
2021/08/27 00:11:56;;;;;;;19.92;11.10;;;;;;;;;;5115522;28;20028;-71
2021/08/27 00:14:22;;;;;;;15.00;10.48;;;;;;;;;;5097338;28;20032;-72
2021/08/27 00:16:47;;;;;;;17.00;10.80;;;;;;;;;;5097306;28;20073;-72
2021/08/27 00:19:13;;;;;;;17.70;11.85;;;;;;;;;;5115447;28;20046;-73
2021/08/27 00:21:38;;;;;;;16.88;11.23;;;;;;;;;;5115276;28;20035;-72
2021/08/27 00:24:06;;;;;;;19.25;11.38;;;;;;;;;;5114857;28;20048;-72
2021/08/27 00:26:32;;;;;;;16.27;11.63;;;;;;;;;;5114820;28;20039;-73
2021/08/27 00:28:58;;;;;;;18.65;11.80;;;;;;;;;;5096946;28;20039;-73
2021/08/27 00:31:23;;;;;;;17.67;11.50;;;;;;;;;;5096892;28;20038;-70
2021/08/27 00:33:49;;;;;;;16.77;11.77;;;;;;;;;;5115193;28;20085;-69
2021/08/27 00:36:14;;;;;;;17.42;11.38;;;;;;;;;;5096869;28;20031;-69
2021/08/27 00:38:39;;;;;;;18.73;12.10;;;;;;;;;;5114996;28;20031;-70
2021/08/27 00:41:06;;;;;;;19.77;12.55;;;;;;;;;;5115060;28;20052;-69
2021/08/27 00:43:31;;;;;;;19.55;12.65;;;;;;;;;;5114841;28;20531;-70
2021/08/27 00:45:57;;;;;;;18.73;12.32;;;;;;;;;;5114616;28;20485;-69
2021/08/27 00:48:22;;;;;;;17.52;12.95;;;;;;;;;;5096699;28;20511;-70
2021/08/27 00:50:48;;;;;;;18.88;12.80;;;;;;;;;;5114866;28;20028;-69
2021/08/27 00:53:14;;;;;;;20.40;12.90;;;;;;;;;;5114856;28;20040;-70
2021/08/27 00:55:40;;;;;;;22.52;12.65;;;;;;;;;;5096694;28;20032;-69
2021/08/27 00:58:05;;;;;;;20.15;12.88;;;;;;;;;;5114711;28;20040;-70
2021/08/27 01:00:31;;;;;;;20.75;13.38;;;;;;;;;;5114699;28;20032;-70
2021/08/27 01:02:57;;;;;;;22.77;13.20;;;;;;;;;;5096453;28;20446;-69
2021/08/27 01:05:22;;;;;;;20.05;11.88;;;;;;;;;;5114704;28;20148;-69
2021/08/27 01:07:50;;;;;;;18.45;11.10;;;;;;;;;;5096126;28;20505;-73
2021/08/27 01:10:21;;;;;;;20.30;11.77;;;;;;;;;;5096276;28;20039;-73
2021/08/27 01:12:52;;;;;;;17.80;12.05;;;;;;;;;;5096390;28;20101;-73
2021/08/27 01:15:21;;;;;;;17.55;12.40;;;;;;;;;;5114399;28;20031;-72
2021/08/27 01:17:52;;;;;;;17.77;11.98;;;;;;;;;;5114448;28;20028;-73
2021/08/27 01:20:27;;;;;;;16.63;11.23;;;;;;;;;;5078778;28;20126;-73
2021/08/27 01:23:13;;;;;;;17.08;11.80;;;;;;;;;;5114264;28;20092;-72
2021/08/27 01:25:40;;;;;;;18.55;12.25;;;;;;;;;;5114269;28;20088;-72
2021/08/27 01:28:07;;;;;;;21.45;12.85;;;;;;;;;;5114040;28;20557;-72
2021/08/27 01:30:33;;;;;;;20.63;12.73;;;;;;;;;;5095791;28;20397;-72
2021/08/27 01:33:06;;;;;;;20.20;12.85;;;;;;;;;;5114078;28;20015;-73
2021/08/27 01:35:32;;;;;;;22.13;13.77;;;;;;;;;;5114089;28;20047;-73
2021/08/27 01:37:59;;;;;;;21.52;13.73;;;;;;;;;;5114143;28;20024;-72
2021/08/27 01:40:27;;;;;;;24.05;14.00;;;;;;;;;;5095734;28;20039;-73
2021/08/27 01:42:53;;;;;;;19.38;12.93;;;;;;;;;;5113899;28;20051;-73
2021/08/27 01:45:19;;;;;;;19.65;12.07;;;;;;;;;;5113902;28;20085;-72
2021/08/27 01:47:46;;;;;;;16.00;11.57;;;;;;;;;;5095544;28;20038;-72
2021/08/27 01:50:12;;;;;;;16.05;11.43;;;;;;;;;;5113808;28;20137;-72
2021/08/27 01:52:38;;;;;;;16.88;11.88;;;;;;;;;;5078751;28;20469;-72
2021/08/27 01:55:04;;;;;;;18.02;12.05;;;;;;;;;;5113627;28;20036;-72
2021/08/27 01:57:30;;;;;;;15.90;11.07;;;;;;;;;;5113042;28;20073;-72
2021/08/27 01:59:56;;;;;;;15.15;10.50;;;;;;;;;;5113521;28;20478;-73
2021/08/27 02:02:21;;;;;;;14.55;10.07;;;;;;;;;;5113641;28;20051;-72
2021/08/27 02:04:49;;;;;;;14.38;10.45;;;;;;;;;;5078547;28;20035;-73
2021/08/27 02:07:15;;;;;;;17.23;12.20;;;;;;;;;;5095352;28;20076;-72
2021/08/27 02:09:40;;;;;;;17.35;10.90;;;;;;;;;;5113506;28;20035;-73
2021/08/27 02:12:06;;;;;;;14.00;10.27;;;;;;;;;;5095267;28;20028;-73
2021/08/27 02:14:33;;;;;;;11.45;9.35;;;;;;;;;;5113494;28;20038;-73
2021/08/27 02:16:58;;;;;;;13.65;9.45;;;;;;;;;;5113482;28;20497;-72
2021/08/27 02:19:24;;;;;;;11.48;8.57;;;;;;;;;;5113458;28;20036;-72
2021/08/27 02:21:51;;;;;;;11.55;9.30;;;;;;;;;;5113346;28;20053;-72
2021/08/27 02:24:18;;;;;;;8.82;7.93;;;;;;;;;;5095156;28;20437;-73
2021/08/27 02:26:45;;;;;;;9.55;7.93;;;;;;;;;;5112952;28;20047;-72
2021/08/27 02:29:11;;;;;;;8.82;7.90;;;;;;;;;;5113693;28;20096;-72
2021/08/27 02:31:37;;;;;;;11.98;9.10;;;;;;;;;;5113369;28;20088;-72
2021/08/27 02:34:03;;;;;;;9.88;8.82;;;;;;;;;;5113153;28;20035;-72
2021/08/27 02:36:29;;;;;;;11.77;9.15;;;;;;;;;;5113372;28;20473;-73
2021/08/27 02:38:55;;;;;;;11.70;9.45;;;;;;;;;;5113303;28;20040;-73
2021/08/27 02:41:22;;;;;;;10.63;8.40;;;;;;;;;;5113338;28;20077;-73
2021/08/27 02:43:47;;;;;;;12.27;9.13;;;;;;;;;;5113193;28;20035;-73
2021/08/27 02:46:13;;;;;;;13.18;9.63;;;;;;;;;;5094934;28;20503;-73
2021/08/27 02:48:39;;;;;;;14.05;10.43;;;;;;;;;;5094907;28;20047;-73
2021/08/27 02:51:10;;;;;;;13.65;9.55;;;;;;;;;;5113096;28;20554;-73
2021/08/27 02:53:39;;;;;;;11.15;8.63;;;;;;;;;;5095139;28;20394;-72
2021/08/27 02:56:08;;;;;;;9.90;8.20;;;;;;;;;;5113220;28;20054;-71
2021/08/27 02:58:35;;;;;;;9.82;7.63;;;;;;;;;;5113189;28;20110;-72
2021/08/27 03:01:04;;;;;;;9.52;8.23;;;;;;;;;;5113114;28;20031;-72
2021/08/27 03:03:34;;;;;;;10.18;8.95;;;;;;;;;;5113110;28;20039;-73
2021/08/27 03:06:21;;;;;;;10.32;8.65;;;;;;;;;;5113075;28;20078;-72
2021/08/27 03:08:50;;;;;;;12.48;9.30;;;;;;;;;;5116104;28;20138;-72
2021/08/27 03:11:24;;;;;;;10.88;8.77;;;;;;;;;;5098607;28;20363;-72
2021/08/27 03:14:05;;;;;;;12.18;8.60;;;;;;;;;;5116790;28;20031;-71
2021/08/27 03:16:30;;;;;;;9.02;8.10;;;;;;;;;;5098813;28;20629;-71
2021/08/27 03:19:00;;;;;;;9.40;8.30;;;;;;;;;;5098477;28;20110;-71
2021/08/27 03:21:31;;;;;;;10.37;9.00;;;;;;;;;;5098334;28;20039;-71
2021/08/27 03:24:00;;;;;;;10.68;8.52;;;;;;;;;;5116712;28;20130;-71
2021/08/27 03:26:27;;;;;;;9.13;8.32;;;;;;;;;;5116191;28;20379;-70
2021/08/27 03:29:02;;;;;;;10.00;8.57;;;;;;;;;;5116710;28;20175;-71
2021/08/27 03:31:27;;;;;;;10.20;8.75;;;;;;;;;;5116442;28;20071;-71
2021/08/27 03:33:56;;;;;;;10.00;8.73;;;;;;;;;;5116358;28;20062;-71
2021/08/27 03:36:26;;;;;;;11.00;9.18;;;;;;;;;;5098312;28;20469;-71
2021/08/27 03:38:52;;;;;;;11.27;9.13;;;;;;;;;;5098277;28;20059;-71
2021/08/27 03:41:19;;;;;;;10.18;8.82;;;;;;;;;;5097879;28;20035;-71
2021/08/27 03:43:45;;;;;;;11.60;9.18;;;;;;;;;;5116224;28;20126;-71
2021/08/27 03:46:12;;;;;;;10.55;8.65;;;;;;;;;;5116104;28;20075;-71
2021/08/27 03:48:38;;;;;;;10.45;8.50;;;;;;;;;;5097939;28;20084;-71
2021/08/27 03:51:04;;;;;;;9.50;8.52;;;;;;;;;;5116039;28;20043;-71
2021/08/27 03:53:31;;;;;;;11.85;9.60;;;;;;;;;;5097954;28;20039;-71
2021/08/27 03:55:57;;;;;;;10.65;8.45;;;;;;;;;;5097808;28;20092;-71
2021/08/27 03:58:23;;;;;;;12.52;9.13;;;;;;;;;;5115944;28;20023;-71
2021/08/27 04:00:50;;;;;;;11.60;9.10;;;;;;;;;;5080421;28;20038;-71
2021/08/27 04:03:18;;;;;;;11.13;9.13;;;;;;;;;;5115916;28;20043;-71
2021/08/27 04:05:59;;;;;;;12.57;9.52;;;;;;;;;;5115783;28;20448;-73
2021/08/27 04:08:25;;;;;;;11.88;9.35;;;;;;;;;;5115781;28;20031;-73
2021/08/27 04:10:50;;;;;;;13.30;9.45;;;;;;;;;;5097491;28;20546;-73
2021/08/27 04:13:16;;;;;;;13.38;10.02;;;;;;;;;;5097603;28;20077;-72
2021/08/27 04:15:41;;;;;;;14.85;11.25;;;;;;;;;;5097477;28;20059;-73
2021/08/27 04:18:06;;;;;;;16.60;12.38;;;;;;;;;;5115537;28;20066;-73
2021/08/27 04:20:32;;;;;;;16.13;12.05;;;;;;;;;;5114667;28;20042;-73
2021/08/27 04:22:57;;;;;;;17.15;13.00;;;;;;;;;;5115479;28;20041;-73
2021/08/27 04:25:23;;;;;;;16.80;12.65;;;;;;;;;;5115399;28;20470;-72
2021/08/27 04:27:48;;;;;;;16.15;12.07;;;;;;;;;;5115229;28;20048;-72
2021/08/27 04:30:14;;;;;;;17.77;12.75;;;;;;;;;;5096903;28;20039;-72
2021/08/27 04:32:39;;;;;;;18.50;12.93;;;;;;;;;;5115028;28;20074;-72
2021/08/27 04:35:05;;;;;;;18.35;12.48;;;;;;;;;;5115314;28;20035;-72
2021/08/27 04:37:30;;;;;;;18.13;12.98;;;;;;;;;;5115156;28;20034;-73
2021/08/27 04:39:56;;;;;;;20.27;13.32;;;;;;;;;;5115165;28;20030;-72
2021/08/27 04:42:21;;;;;;;18.05;13.63;;;;;;;;;;5115060;28;20043;-73
2021/08/27 04:44:47;;;;;;;19.25;13.90;;;;;;;;;;5115056;28;20023;-73
2021/08/27 04:47:12;;;;;;;20.90;13.88;;;;;;;;;;5114928;28;20080;-73
2021/08/27 04:49:37;;;;;;;18.23;13.13;;;;;;;;;;5114812;28;20450;-73
2021/08/27 04:52:03;;;;;;;17.65;13.02;;;;;;;;;;5114796;28;20040;-73
2021/08/27 04:54:28;;;;;;;17.70;13.10;;;;;;;;;;5096652;28;20066;-73
2021/08/27 04:56:54;;;;;;;21.10;14.15;;;;;;;;;;5096654;28;20035;-73
2021/08/27 04:59:19;;;;;;;21.95;14.20;;;;;;;;;;5114896;28;20186;-73
2021/08/27 05:01:45;;;;;;;19.35;13.43;;;;;;;;;;5114852;28;20032;-72
2021/08/27 05:04:10;;;;;;;25.25;14.48;;;;;;;;;;5114741;28;20030;-73
2021/08/27 05:06:36;;;;;;;22.77;14.07;;;;;;;;;;5079422;28;20027;-73
2021/08/27 05:09:01;;;;;;;20.38;13.75;;;;;;;;;;5114401;28;20377;-72
2021/08/27 05:11:27;;;;;;;21.67;14.50;;;;;;;;;;5096188;28;20074;-73
2021/08/27 05:13:52;;;;;;;23.55;15.25;;;;;;;;;;5114459;28;20024;-73
2021/08/27 05:16:17;;;;;;;19.33;14.18;;;;;;;;;;5096287;28;20056;-73
2021/08/27 05:18:43;;;;;;;19.17;13.23;;;;;;;;;;5114423;28;20020;-73
2021/08/27 05:21:08;;;;;;;19.45;13.95;;;;;;;;;;5114319;28;20043;-73
2021/08/27 05:23:34;;;;;;;21.52;14.50;;;;;;;;;;5114339;28;20474;-72
2021/08/27 05:25:59;;;;;;;19.20;13.45;;;;;;;;;;5096109;28;20046;-73
2021/08/27 05:28:25;;;;;;;18.20;13.25;;;;;;;;;;5114007;28;20054;-73
2021/08/27 05:30:51;;;;;;;20.55;12.95;;;;;;;;;;5095685;28;20040;-73
2021/08/27 05:33:16;;;;;;;22.10;14.70;;;;;;;;;;5114067;28;20514;-73
2021/08/27 05:35:42;;;;;;;18.55;13.35;;;;;;;;;;5095863;28;20032;-73
2021/08/27 05:38:07;;;;;;;21.73;14.25;;;;;;;;;;5095895;28;20023;-73
2021/08/27 05:40:33;;;;;;;25.25;15.10;;;;;;;;;;5095942;28;20075;-73
2021/08/27 05:42:58;;;;;;;21.20;14.90;;;;;;;;;;5114071;28;20027;-73
2021/08/27 05:45:24;;;;;;;23.88;14.75;;;;;;;;;;5113877;28;20031;-73
2021/08/27 05:47:49;;;;;;;24.20;14.98;;;;;;;;;;5113893;28;20135;-72
2021/08/27 05:50:16;;;;;;;21.42;14.90;;;;;;;;;;5113823;28;20039;-72
2021/08/27 05:52:41;;;;;;;22.45;14.32;;;;;;;;;;5095881;28;20378;-67
2021/08/27 05:55:07;;;;;;;20.60;13.70;;;;;;;;;;5113964;28;20042;-73
2021/08/27 05:57:33;;;;;;;19.85;12.55;;;;;;;;;;5113859;28;20111;-73
2021/08/27 05:59:58;;;;;;;18.67;12.90;;;;;;;;;;5095589;28;20043;-73
2021/08/27 06:02:23;;;;;;;17.00;11.95;;;;;;;;;;5113780;28;20050;-73
2021/08/27 06:04:49;;;;;;;15.52;11.20;;;;;;;;;;5095368;28;20047;-73
2021/08/27 06:07:14;;;;;;;16.85;11.73;;;;;;;;;;5113515;28;20028;-73
2021/08/27 06:09:42;;;;;;;15.38;12.40;;;;;;;;;;5113344;28;20043;-73
2021/08/27 06:12:09;;;;;;;18.95;12.93;;;;;;;;;;5113664;28;20062;-73
2021/08/27 06:14:34;;;;;;;18.40;11.70;;;;;;;;;;5113526;28;20043;-73
2021/08/27 06:16:59;;;;;;;16.33;12.07;;;;;;;;;;5113623;28;20024;-73
2021/08/27 06:19:25;;;;;;;15.40;11.27;;;;;;;;;;5113469;28;20039;-73
2021/08/27 06:21:50;;;;;;;15.82;10.65;;;;;;;;;;5113627;28;20417;-73
2021/08/27 06:24:16;;;;;;;15.15;11.23;;;;;;;;;;5113609;28;20520;-73
2021/08/27 06:26:41;;;;;;;15.98;11.75;;;;;;;;;;5112919;28;20096;-73
2021/08/27 06:29:07;;;;;;;15.15;10.60;;;;;;;;;;5113568;28;20035;-74
2021/08/27 06:31:32;;;;;;;15.25;11.00;;;;;;;;;;5113538;28;20039;-73
2021/08/27 06:33:58;;;;;;;19.50;11.65;;;;;;;;;;5113418;28;20113;-73
2021/08/27 06:36:23;;;;;;;19.88;12.52;;;;;;;;;;5113364;28;20016;-73
2021/08/27 06:38:49;;;;;;;17.38;11.50;;;;;;;;;;5095189;28;20038;-73
2021/08/27 06:41:15;;;;;;;18.35;11.95;;;;;;;;;;5113300;28;20077;-73
2021/08/27 06:43:43;;;;;;;19.33;13.25;;;;;;;;;;5098251;28;20112;-73
2021/08/27 06:46:13;;;;;;;20.13;12.88;;;;;;;;;;5099261;28;20424;-73
2021/08/27 06:48:39;;;;;;;16.08;11.60;;;;;;;;;;5117171;28;20036;-73
2021/08/27 06:51:05;;;;;;;20.20;13.95;;;;;;;;;;5117253;28;20040;-73
2021/08/27 06:53:30;;;;;;;22.83;14.10;;;;;;;;;;5117206;28;20066;-73
2021/08/27 06:55:56;;;;;;;24.65;15.10;;;;;;;;;;5117193;28;20023;-73
2021/08/27 06:58:22;;;;;;;25.27;15.05;;;;;;;;;;5098928;28;20032;-73
2021/08/27 07:00:47;;;;;;;25.42;14.90;;;;;;;;;;5117113;28;20031;-73
2021/08/27 07:03:13;;;;;;;22.75;14.95;;;;;;;;;;5117117;28;20036;-73
2021/08/27 07:05:38;;;;;;;26.83;16.35;;;;;;;;;;5117026;28;20031;-72
2021/08/27 07:08:05;;;;;;;30.55;17.52;;;;;;;;;;5116945;28;20035;-73
2021/08/27 07:10:31;;;;;;;25.58;15.98;;;;;;;;;;5116823;28;20521;-72
2021/08/27 07:12:57;;;;;;;28.08;17.20;;;;;;;;;;5116808;28;20169;-73
2021/08/27 07:15:23;;;;;;;29.73;18.52;;;;;;;;;;5116870;28;20102;-72
2021/08/27 07:17:49;;;;;;;33.42;20.02;;;;;;;;;;5116883;28;20112;-72
2021/08/27 07:20:15;;;;;;;32.97;18.73;;;;;;;;;;5116707;28;20513;-72
2021/08/27 07:22:41;;;;;;;33.20;18.45;;;;;;;;;;5098332;28;20035;-72
2021/08/27 07:25:06;;;;;;;33.58;18.88;;;;;;;;;;5116631;28;20074;-72
2021/08/27 07:27:32;;;;;;;32.05;18.77;;;;;;;;;;5080979;28;20051;-73
2021/08/27 07:29:57;;;;;;;35.45;20.88;;;;;;;;;;5098239;28;20140;-73
2021/08/27 07:32:23;;;;;;;35.28;19.75;;;;;;;;;;5116449;28;20040;-72
2021/08/27 07:34:49;;;;;;;36.90;18.50;;;;;;;;;;5116422;28;20108;-73
2021/08/27 07:37:14;;;;;;;32.70;18.88;;;;;;;;;;5116546;28;20105;-72
2021/08/27 07:39:41;;;;;;;32.67;19.75;;;;;;;;;;5098118;28;20477;-73
2021/08/27 07:42:08;;;;;;;38.17;20.25;;;;;;;;;;5116406;28;20043;-73
2021/08/27 07:44:33;;;;;;;31.63;18.70;;;;;;;;;;5116305;28;20597;-73
2021/08/27 07:46:59;;;;;;;34.53;19.30;;;;;;;;;;5116275;28;20039;-73
2021/08/27 07:49:24;;;;;;;33.92;19.35;;;;;;;;;;5116196;28;20027;-73
2021/08/27 07:51:51;;;;;;;36.35;20.10;;;;;;;;;;5116104;28;20040;-72
2021/08/27 07:54:17;;;;;;;38.40;22.67;;;;;;;;;;5114668;28;20115;-73
2021/08/27 07:56:42;;;;;;;32.63;19.75;;;;;;;;;;5115979;28;20118;-72
2021/08/27 07:59:08;;;;;;;33.95;19.48;;;;;;;;;;5097669;28;20447;-73
2021/08/27 08:01:33;;;;;;;29.67;18.00;;;;;;;;;;5115893;28;20031;-73
2021/08/27 08:04:01;;;;;;;35.00;18.77;;;;;;;;;;5115848;28;20031;-72
2021/08/27 08:06:26;;;;;;;32.42;18.67;;;;;;;;;;5115825;28;20032;-72
2021/08/27 08:08:52;;;;;;;30.85;18.80;;;;;;;;;;5115700;28;20027;-72
2021/08/27 08:11:17;;;;;;;37.67;21.73;;;;;;;;;;5115763;28;20435;-72
2021/08/27 08:13:43;;;;;;;29.73;19.02;;;;;;;;;;5115631;28;20079;-72
2021/08/27 08:16:08;;;;;;;28.80;17.23;;;;;;;;;;5097625;28;20027;-72
2021/08/27 08:18:35;;;;;;;27.75;16.80;;;;;;;;;;5115632;28;20511;-72
2021/08/27 08:21:01;;;;;;;27.23;15.82;;;;;;;;;;5115575;28;20489;-72
2021/08/27 08:23:27;;;;;;;28.77;16.58;;;;;;;;;;5097352;28;20066;-72
2021/08/27 08:25:53;;;;;;;26.95;16.60;;;;;;;;;;5115494;28;20490;-72
2021/08/27 08:31:52;;;;;;;29.15;16.67;;;;;;;;;;4924248;28;20475;-72
2021/08/27 08:34:18;;;;;;;27.55;16.23;;;;;;;;;;4996540;28;20104;-72
2021/08/27 08:36:43;;;;;;;28.33;16.83;;;;;;;;;;5012299;28;20042;-72
2021/08/27 08:39:10;;;;;;;23.80;15.30;;;;;;;;;;4996442;28;20041;-72
2021/08/27 08:41:35;;;;;;;23.02;14.77;;;;;;;;;;5012707;28;20041;-72
2021/08/27 08:44:01;;;;;;;24.15;14.43;;;;;;;;;;5012760;28;20050;-72
2021/08/27 08:46:27;;;;;;;21.38;14.65;;;;;;;;;;5012628;28;20042;-72
2021/08/27 08:48:54;;;;;;;25.05;15.00;;;;;;;;;;4996064;28;20099;-72
2021/08/27 08:51:23;;;;;;;23.85;14.43;;;;;;;;;;5012702;28;20042;-72
2021/08/27 08:53:49;;;;;;;19.15;13.70;;;;;;;;;;5012605;28;20120;-72
2021/08/27 08:56:16;;;;;;;19.98;13.70;;;;;;;;;;4995747;28;20436;-72
2021/08/27 08:58:41;;;;;;;19.90;12.88;;;;;;;;;;5012627;28;20124;-72
2021/08/27 09:01:12;;;;;;;17.55;12.68;;;;;;;;;;5012651;28;20117;-72
2021/08/27 09:03:38;;;;;;;18.00;12.80;;;;;;;;;;5012269;28;20480;-72
2021/08/27 09:06:03;;;;;;;17.70;12.82;;;;;;;;;;5011950;28;20041;-72
2021/08/27 09:08:32;;;;;;;17.75;11.52;;;;;;;;;;5028189;28;20088;-72
2021/08/27 09:10:58;;;;;;;15.65;11.05;;;;;;;;;;5114883;28;20070;-72
2021/08/27 09:13:28;;;;;;;15.02;11.60;;;;;;;;;;5114429;28;20485;-72
2021/08/27 09:16:07;;;;;;;16.52;11.27;;;;;;;;;;5114589;28;20036;-72
2021/08/27 09:18:37;;;;;;;13.75;10.52;;;;;;;;;;5114468;28;20063;-72
2021/08/27 09:21:22;;;;;;;15.38;10.63;;;;;;;;;;5114474;28;20062;-72
2021/08/27 09:23:48;;;;;;;18.30;11.60;;;;;;;;;;5114178;28;20031;-72
2021/08/27 09:26:32;;;;;;;18.25;12.85;;;;;;;;;;5114055;28;20042;-72
2021/08/27 09:28:57;;;;;;;18.92;12.80;;;;;;;;;;5114131;28;20137;-72
2021/08/27 09:31:30;;;;;;;18.05;12.57;;;;;;;;;;5114230;28;20052;-73
2021/08/27 09:33:56;;;;;;;17.85;12.60;;;;;;;;;;5114317;28;20042;-72
2021/08/27 09:36:22;;;;;;;17.85;13.73;;;;;;;;;;5096048;28;20023;-72
2021/08/27 09:38:58;;;;;;;20.85;14.30;;;;;;;;;;5114148;28;20080;-72
2021/08/27 09:41:24;;;;;;;16.75;13.65;;;;;;;;;;5114094;28;20027;-72
2021/08/27 09:43:54;;;;;;;19.67;13.63;;;;;;;;;;5114025;28;20027;-72
2021/08/27 09:46:42;;;;;;;17.92;13.43;;;;;;;;;;5113992;28;20500;-72
2021/08/27 09:49:26;;;;;;;18.92;13.55;;;;;;;;;;5113943;28;20607;-72
2021/08/27 09:51:52;;;;;;;18.80;14.00;;;;;;;;;;5113744;28;20401;-73
2021/08/27 09:54:22;;;;;;;17.90;12.82;;;;;;;;;;5113754;28;20035;-72
2021/08/27 09:56:49;;;;;;;15.68;12.65;;;;;;;;;;5113861;28;20062;-72
2021/08/27 09:59:14;;;;;;;13.07;10.52;;;;;;;;;;5113665;28;20024;-73
2021/08/27 10:01:50;;;;;;;14.77;11.35;;;;;;;;;;5113729;28;20173;-73
2021/08/27 10:04:18;;;;;;;12.52;9.95;;;;;;;;;;5113676;28;20035;-72
2021/08/27 10:06:44;;;;;;;12.38;10.48;;;;;;;;;;5113795;28;20031;-73
2021/08/27 10:09:09;;;;;;;11.93;10.32;;;;;;;;;;5113699;28;20169;-72
2021/08/27 10:11:35;;;;;;;14.30;10.63;;;;;;;;;;5113683;28;20028;-73
2021/08/27 10:14:01;;;;;;;12.32;10.40;;;;;;;;;;5095480;28;20111;-72
2021/08/27 10:16:27;;;;;;;12.43;9.50;;;;;;;;;;5113084;28;20020;-73
2021/08/27 10:18:54;;;;;;;12.32;9.98;;;;;;;;;;5094853;28;20031;-73
2021/08/27 10:21:19;;;;;;;13.65;10.48;;;;;;;;;;5113205;28;20027;-73
2021/08/27 10:23:45;;;;;;;11.20;9.15;;;;;;;;;;5095552;28;20058;-73
2021/08/27 10:26:18;;;;;;;9.90;8.82;;;;;;;;;;5113219;28;20054;-73
2021/08/27 10:28:45;;;;;;;16.65;13.00;;;;;;;;;;5095220;28;20554;-73
2021/08/27 10:31:11;;;;;;;9.45;8.48;;;;;;;;;;5113213;28;20040;-72
2021/08/27 10:33:39;;;;;;;10.65;8.75;;;;;;;;;;5113293;28;20038;-73
2021/08/27 10:36:09;;;;;;;10.25;8.52;;;;;;;;;;5113393;28;20484;-73
2021/08/27 10:38:41;;;;;;;9.40;8.23;;;;;;;;;;5113344;28;20027;-73
2021/08/27 10:41:08;;;;;;;10.43;9.27;;;;;;;;;;5113346;28;20324;-73
2021/08/27 10:43:49;;;;;;;10.70;9.60;;;;;;;;;;5113239;28;20067;-73
2021/08/27 10:46:15;;;;;;;9.32;7.68;;;;;;;;;;5113257;28;20051;-73
2021/08/27 10:48:48;;;;;;;8.77;6.95;;;;;;;;;;5094981;28;20466;-72
2021/08/27 10:51:28;;;;;;;7.63;6.88;;;;;;;;;;5113263;28;20036;-72
2021/08/27 10:53:54;;;;;;;7.25;6.55;;;;;;;;;;5113213;28;20047;-73
2021/08/27 10:56:50;;;;;;;8.15;7.28;;;;;;;;;;5094944;28;20028;-73
2021/08/27 10:59:16;;;;;;;9.88;7.53;;;;;;;;;;5080732;28;20036;-73
2021/08/27 11:01:43;;;;;;;8.60;7.20;;;;;;;;;;5113203;28;20500;-73
2021/08/27 11:04:13;;;;;;;8.52;7.70;;;;;;;;;;5094905;28;20030;-74
2021/08/27 11:06:58;;;;;;;8.90;8.02;;;;;;;;;;5113217;28;20385;-73
2021/08/27 11:09:24;;;;;;;8.93;7.28;;;;;;;;;;5112966;28;20063;-74
2021/08/27 11:12:11;;;;;;;102.68;37.92;;;;;;;;;;5113144;28;20047;-74
2021/08/27 11:14:38;;;;;;;55.28;25.52;;;;;;;;;;5112716;28;20106;-74
2021/08/27 11:17:05;;;;;;;19.77;12.40;;;;;;;;;;5112989;28;20084;-74
2021/08/27 11:19:32;;;;;;;10.65;9.65;;;;;;;;;;5112934;28;20107;-74
2021/08/27 11:22:10;;;;;;;14.13;10.02;;;;;;;;;;5112913;28;20065;-74
2021/08/27 11:24:35;;;;;;;170.68;66.25;;;;;;;;;;5112962;28;20595;-74
2021/08/27 11:27:05;;;;;;;60.88;31.23;;;;;;;;;;5112525;28;20063;-74
2021/08/27 11:29:41;;;;;;;9.17;7.80;;;;;;;;;;5115438;28;20047;-74
2021/08/27 11:32:10;;;;;;;7.72;6.65;;;;;;;;;;5116529;28;20027;-74
2021/08/27 11:34:52;;;;;;;33.13;19.23;;;;;;;;;;5116585;28;20061;-74
2021/08/27 11:37:20;;;;;;;30.25;20.10;;;;;;;;;;5116426;28;20086;-74
2021/08/27 11:39:46;;;;;;;42.60;24.33;;;;;;;;;;5116445;28;20492;-74
2021/08/27 11:42:12;;;;;;;8.25;6.75;;;;;;;;;;5116307;28;20035;-74
2021/08/27 11:44:43;;;;;;;105.88;54.35;;;;;;;;;;5116335;28;20065;-74
2021/08/27 11:47:12;;;;;;;25.88;18.00;;;;;;;;;;5116296;28;20043;-74
2021/08/27 11:49:41;;;;;;;19.23;13.43;;;;;;;;;;5116209;28;20031;-74
2021/08/27 11:52:11;;;;;;;23.17;14.93;;;;;;;;;;5116225;28;20465;-74
2021/08/27 11:54:37;;;;;;;43.83;28.17;;;;;;;;;;5097901;28;20472;-74
2021/08/27 11:57:03;;;;;;;12.68;10.48;;;;;;;;;;5116111;28;20034;-73
2021/08/27 11:59:28;;;;;;;12.45;9.30;;;;;;;;;;5116082;28;20492;-73
2021/08/27 12:01:55;;;;;;;14.68;10.48;;;;;;;;;;5097664;28;20057;-73
2021/08/27 12:04:22;;;;;;;13.43;10.75;;;;;;;;;;5115944;28;20040;-73
2021/08/27 12:06:47;;;;;;;14.20;12.70;;;;;;;;;;5097699;28;20085;-73
2021/08/27 12:09:13;;;;;;;10.48;8.38;;;;;;;;;;5097334;28;20063;-73
2021/08/27 12:11:39;;;;;;;10.77;8.13;;;;;;;;;;5115843;28;20127;-73
2021/08/27 12:14:05;;;;;;;18.90;11.07;;;;;;;;;;5097430;28;20032;-73
2021/08/27 12:16:30;;;;;;;10.10;7.50;;;;;;;;;;5115706;28;20020;-73
2021/08/27 12:18:57;;;;;;;8.30;6.47;;;;;;;;;;5115649;28;20028;-74
2021/08/27 12:21:24;;;;;;;8.45;7.63;;;;;;;;;;5115520;28;20111;-74
2021/08/27 12:24:16;;;;;;;11.43;8.93;;;;;;;;;;5115511;28;20043;-74
2021/08/27 12:26:42;;;;;;;8.30;6.93;;;;;;;;;;5110442;28;20180;-73
2021/08/27 12:29:17;;;;;;;8.07;7.30;;;;;;;;;;5097323;28;20130;-73
2021/08/27 12:31:48;;;;;;;7.93;7.13;;;;;;;;;;5115144;28;20043;-74
2021/08/27 12:34:17;;;;;;;7.45;6.75;;;;;;;;;;5115336;28;20097;-73
2021/08/27 12:36:43;;;;;;;6.97;6.05;;;;;;;;;;5115352;28;20111;-73
2021/08/27 12:39:09;;;;;;;27.83;19.10;;;;;;;;;;5115225;28;20123;-73
2021/08/27 12:41:37;;;;;;;13.63;10.63;;;;;;;;;;5114302;28;20492;-73
2021/08/27 12:44:07;;;;;;;22.02;15.93;;;;;;;;;;5114797;28;20027;-74
2021/08/27 12:46:33;;;;;;;14.00;10.05;;;;;;;;;;5113567;28;20067;-73
2021/08/27 12:49:12;;;;;;;8.82;7.82;;;;;;;;;;5095998;28;20437;-73
2021/08/27 12:51:41;;;;;;;8.02;7.25;;;;;;;;;;5096688;28;20092;-73
2021/08/27 12:54:07;;;;;;;6.93;6.25;;;;;;;;;;5096786;28;20116;-73
2021/08/27 12:56:33;;;;;;;7.25;6.63;;;;;;;;;;5114796;28;20074;-73
2021/08/27 12:59:13;;;;;;;6.88;6.18;;;;;;;;;;5114845;28;20032;-73
2021/08/27 13:01:38;;;;;;;6.95;6.25;;;;;;;;;;5096582;28;20065;-73
2021/08/27 13:04:04;;;;;;;7.90;7.15;;;;;;;;;;5114755;28;20480;-73
2021/08/27 13:06:40;;;;;;;7.85;7.03;;;;;;;;;;5114210;28;20451;-73
2021/08/27 13:09:10;;;;;;;6.50;5.03;;;;;;;;;;5114685;28;20144;-73
2021/08/27 13:11:55;;;;;;;5.80;5.28;;;;;;;;;;5114708;28;20073;-73
2021/08/27 13:14:21;;;;;;;5.80;5.25;;;;;;;;;;5096553;28;20028;-73
2021/08/27 13:17:05;;;;;;;7.15;4.68;;;;;;;;;;5114653;28;20031;-73
2021/08/27 13:19:46;;;;;;;6.00;5.07;;;;;;;;;;5079330;28;20051;-73
2021/08/27 13:22:12;;;;;;;6.22;4.93;;;;;;;;;;5096169;28;20032;-73
2021/08/27 13:24:37;;;;;;;6.45;5.82;;;;;;;;;;5096140;28;20078;-74
2021/08/27 13:27:03;;;;;;;5.80;5.20;;;;;;;;;;5113831;28;20036;-73
2021/08/27 13:29:29;;;;;;;6.68;5.97;;;;;;;;;;5079082;28;20062;-73
2021/08/27 13:31:54;;;;;;;5.22;4.72;;;;;;;;;;5096053;28;20055;-73
2021/08/27 13:34:20;;;;;;;4.97;4.57;;;;;;;;;;5114116;28;20146;-73
2021/08/27 13:36:45;;;;;;;6.07;5.28;;;;;;;;;;5114073;28;20422;-73
2021/08/27 13:39:13;;;;;;;5.22;4.57;;;;;;;;;;5113998;28;20027;-73
2021/08/27 13:41:42;;;;;;;5.85;5.32;;;;;;;;;;5095888;28;20019;-73
2021/08/27 13:44:08;;;;;;;5.30;4.80;;;;;;;;;;5114035;28;20048;-73
2021/08/27 13:46:36;;;;;;;7.75;5.35;;;;;;;;;;5114083;28;20038;-73
2021/08/27 13:49:03;;;;;;;8.20;6.68;;;;;;;;;;5114284;28;20422;-73
2021/08/27 13:51:28;;;;;;;4.82;4.28;;;;;;;;;;5113767;28;20067;-74
2021/08/27 13:54:03;;;;;;;6.90;4.20;;;;;;;;;;5095784;28;20075;-73
2021/08/27 13:56:29;;;;;;;4.40;4.00;;;;;;;;;;5113966;28;20042;-73
2021/08/27 13:58:56;;;;;;;4.53;4.15;;;;;;;;;;5113843;28;20034;-73
2021/08/27 14:01:23;;;;;;;3.75;3.47;;;;;;;;;;5113560;28;20088;-73
2021/08/27 14:03:48;;;;;;;4.18;3.88;;;;;;;;;;5096494;28;20032;-73
2021/08/27 14:06:14;;;;;;;6.38;4.45;;;;;;;;;;5114208;28;20062;-73
2021/08/27 14:08:39;;;;;;;5.57;4.85;;;;;;;;;;5113791;28;20046;-73
2021/08/27 14:11:07;;;;;;;4.55;3.58;;;;;;;;;;5113813;28;20142;-73
2021/08/27 14:13:32;;;;;;;4.93;3.90;;;;;;;;;;5112158;28;20031;-73
2021/08/27 14:15:58;;;;;;;4.65;3.83;;;;;;;;;;5076367;28;20038;-73
2021/08/27 14:18:23;;;;;;;4.20;3.80;;;;;;;;;;5113846;28;20381;-74
2021/08/27 14:20:49;;;;;;;4.13;3.67;;;;;;;;;;5095688;28;20127;-74
2021/08/27 14:23:14;;;;;;;4.18;3.72;;;;;;;;;;5113948;28;20038;-74
2021/08/27 14:25:40;;;;;;;5.47;3.72;;;;;;;;;;5113642;28;20036;-73
2021/08/27 14:28:06;;;;;;;5.15;3.75;;;;;;;;;;5095183;28;20657;-74
2021/08/27 14:30:34;;;;;;;4.65;4.22;;;;;;;;;;5113489;28;20043;-74